createdAt,value
2023-02-27T04:48:20.855Z,591.65
2023-02-27T04:51:06.505Z,585.22
2023-02-27T04:53:43.657Z,585.70
2023-02-27T04:56:16.411Z,589.80
2023-02-27T04:58:54.436Z,589.50
2023-02-27T05:01:47.704Z,585.05
2023-02-27T05:04:18.503Z,582.05
2023-02-27T05:06:48.199Z,585.77
2023-02-27T05:09:19.992Z,589.45
2023-02-27T05:12:25.811Z,587.22
2023-02-27T05:15:13.904Z,589.63
2023-02-27T05:17:48.931Z,588.95
2023-02-27T05:20:17.192Z,583.22
2023-02-27T05:22:48.589Z,584.22
2023-02-27T05:25:27.931Z,580.88
2023-02-27T05:28:02.552Z,587.95
2023-02-27T05:30:36.850Z,585.47
2023-02-27T05:33:41.372Z,581.13
2023-02-27T05:36:17.195Z,584.13
2023-02-27T05:38:59.450Z,584.15
2023-02-27T05:41:31.521Z,584.40
2023-02-27T05:44:06.484Z,587.33
2023-02-27T05:46:41.485Z,598.47
2023-02-27T05:49:21.137Z,590.83
2023-02-27T05:51:51.411Z,594.70
2023-02-27T05:55:03.259Z,592.55
2023-02-27T05:57:36.944Z,594.33
2023-02-27T06:00:27.589Z,584.75
2023-02-27T06:02:54.250Z,589.53
2023-02-27T06:05:20.933Z,592.75
2023-02-27T06:07:47.585Z,590.03
2023-02-27T06:10:16.261Z,582.80
2023-02-27T06:12:43.233Z,586.53
2023-02-27T06:15:10.696Z,583.43
2023-02-27T06:17:37.382Z,582.88
2023-02-27T06:20:04.304Z,586.13
2023-02-27T06:22:30.901Z,583.83
2023-02-27T06:24:57.560Z,591.35
2023-02-27T06:27:24.258Z,578.67
2023-02-27T06:29:50.822Z,580.50
2023-02-27T06:32:17.547Z,577.47
2023-02-27T06:34:44.154Z,583.47
2023-02-27T06:37:10.762Z,580.70
2023-02-27T06:39:37.624Z,580.30
2023-02-27T06:42:04.420Z,587.45
2023-02-27T06:44:31.036Z,592.40
2023-02-27T06:46:57.628Z,589.75
2023-02-27T06:49:24.222Z,584.15
2023-02-27T06:51:50.889Z,583.90
2023-02-27T06:54:17.841Z,580.25
2023-02-27T06:56:44.550Z,584.80
2023-02-27T06:59:11.273Z,587.70
2023-02-27T07:01:37.942Z,587.47
2023-02-27T07:04:04.916Z,590.30
2023-02-27T07:07:35.150Z,578.47
2023-02-27T07:09:18.347Z,583.58
2023-02-27T07:11:44.964Z,586.70
2023-02-27T07:14:12.513Z,585.90
2023-02-27T07:16:39.208Z,583.13
2023-02-27T07:19:07.445Z,584.88
2023-02-27T07:21:35.238Z,592.20
2023-02-27T07:24:04.672Z,583.15
2023-02-27T07:26:31.314Z,589.90
2023-02-27T07:28:57.969Z,591.15
2023-02-27T07:31:24.695Z,582.67
2023-02-27T07:33:51.420Z,583.22
2023-02-27T07:36:18.041Z,583.45
2023-02-27T07:38:44.694Z,585.42
2023-02-27T07:41:21.291Z,581.72
2023-02-27T07:43:56.175Z,578.28
2023-02-27T07:46:24.074Z,577.10
2023-02-27T07:48:50.752Z,577.70
2023-02-27T07:51:17.417Z,581.13
2023-02-27T07:53:44.193Z,583.42
2023-02-27T07:56:10.807Z,586.57
2023-02-27T07:58:37.412Z,580.42
2023-02-27T08:01:04.100Z,582.20
2023-02-27T08:03:30.758Z,585.00
2023-02-27T08:05:57.492Z,588.42
2023-02-27T08:08:24.578Z,585.60
2023-02-27T08:10:51.231Z,591.90
2023-02-27T08:13:24.977Z,595.22
2023-02-27T08:15:57.176Z,598.88
2023-02-27T08:18:23.993Z,606.70
2023-02-27T08:20:50.781Z,595.88
2023-02-27T08:23:17.412Z,594.92
2023-02-27T08:25:44.117Z,600.25
2023-02-27T08:28:10.716Z,593.30
2023-02-27T08:30:37.368Z,599.35
2023-02-27T08:33:04.127Z,598.53
2023-02-27T08:35:30.974Z,594.50
2023-02-27T08:37:57.888Z,592.40
2023-02-27T08:40:24.816Z,589.43
2023-02-27T08:42:51.737Z,596.15
2023-02-27T08:45:18.465Z,593.63
2023-02-27T08:47:45.320Z,588.75
2023-02-27T08:50:12.659Z,591.20
2023-02-27T08:52:39.311Z,591.22
2023-02-27T08:55:06.570Z,591.33
2023-02-27T08:57:33.269Z,591.87
2023-02-27T09:00:00.251Z,589.53
2023-02-27T09:02:27.067Z,590.85
2023-02-27T09:04:53.715Z,592.58
2023-02-27T09:07:20.698Z,598.15
2023-02-27T09:09:49.712Z,594.93
2023-02-27T09:12:16.597Z,598.08
2023-02-27T09:14:43.240Z,595.90
2023-02-27T09:17:09.938Z,599.28
2023-02-27T09:19:36.796Z,595.30
2023-02-27T09:22:03.446Z,599.00
2023-02-27T09:24:30.242Z,601.35
2023-02-27T09:26:56.894Z,598.87
2023-02-27T09:29:23.924Z,597.42
2023-02-27T09:31:50.656Z,599.35
2023-02-27T09:34:17.435Z,602.08
2023-02-27T09:36:44.068Z,602.20
2023-02-27T09:39:10.742Z,608.35
2023-02-27T09:41:51.555Z,609.95
2023-02-27T09:44:56.947Z,605.13
2023-02-27T09:47:25.861Z,606.35
2023-02-27T09:50:13.043Z,606.28
2023-02-27T09:52:39.673Z,599.85
2023-02-27T09:55:15.166Z,597.92
2023-02-27T09:58:06.735Z,597.92
2023-02-27T10:00:55.928Z,601.22
2023-02-27T10:03:57.635Z,606.97
2023-02-27T10:06:37.432Z,604.90
2023-02-27T10:09:11.238Z,603.28
2023-02-27T10:11:46.471Z,600.60
2023-02-27T10:14:22.010Z,606.08
2023-02-27T10:16:51.234Z,602.35
2023-02-27T10:19:27.242Z,602.13
2023-02-27T10:21:55.229Z,603.00
2023-02-27T10:24:44.676Z,601.55
2023-02-27T10:27:19.058Z,599.88
2023-02-27T10:29:46.812Z,610.92
2023-02-27T10:32:32.785Z,604.67
2023-02-27T10:35:27.199Z,605.10
2023-02-27T10:37:59.572Z,609.95
2023-02-27T10:40:26.837Z,603.47
2023-02-27T10:42:56.296Z,608.88
2023-02-27T10:45:23.047Z,613.50
2023-02-27T10:47:49.683Z,611.83
2023-02-27T10:50:33.233Z,615.60
2023-02-27T10:53:06.908Z,611.47
2023-02-27T10:55:38.243Z,617.15
2023-02-27T10:58:05.573Z,608.00
2023-02-27T11:00:37.871Z,608.83
2023-02-27T11:03:05.261Z,613.15
2023-02-27T11:05:34.220Z,610.88
2023-02-27T11:08:20.897Z,611.08
2023-02-27T11:10:59.527Z,616.65
2023-02-27T11:13:29.904Z,612.90
2023-02-27T11:16:15.441Z,617.97
2023-02-27T11:18:47.352Z,618.75
2023-02-27T11:21:17.015Z,617.78
2023-02-27T11:23:54.247Z,625.92
2023-02-27T11:26:26.893Z,618.97
2023-02-27T11:29:15.034Z,620.78
2023-02-27T11:32:00.302Z,611.35
2023-02-27T11:34:39.711Z,612.97
2023-02-27T11:37:18.880Z,615.17
2023-02-27T11:39:56.143Z,618.97
2023-02-27T11:42:29.156Z,619.37
2023-02-27T11:45:00.502Z,616.22
2023-02-27T11:47:31.901Z,615.83
2023-02-27T11:50:17.315Z,613.95
2023-02-27T11:53:07.201Z,619.55
2023-02-27T11:55:34.331Z,624.92
2023-02-27T11:58:16.533Z,622.67
2023-02-27T12:01:07.616Z,625.38
2023-02-27T12:03:45.281Z,627.42
2023-02-27T12:06:38.111Z,622.78
2023-02-27T12:09:30.540Z,627.65
2023-02-27T12:11:58.070Z,630.20
2023-02-27T12:14:43.256Z,626.17
2023-02-27T12:17:52.019Z,624.65
2023-02-27T12:20:22.200Z,627.97
2023-02-27T12:22:52.798Z,622.83
2023-02-27T12:25:52.614Z,627.10
2023-02-27T12:28:33.190Z,626.25
2023-02-27T12:31:27.310Z,617.22
2023-02-27T12:34:19.882Z,621.00
2023-02-27T12:36:48.488Z,620.45
2023-02-27T12:39:20.952Z,617.67
2023-02-27T12:41:53.634Z,618.35
2023-02-27T12:44:45.001Z,623.72
2023-02-27T12:47:37.570Z,628.45
2023-02-27T12:50:16.326Z,618.35
2023-02-27T12:53:01.783Z,620.45
2023-02-27T12:55:35.406Z,622.03
2023-02-27T12:58:17.272Z,626.67
2023-02-27T13:00:46.295Z,629.22
2023-02-27T13:03:22.102Z,636.97
2023-02-27T13:06:08.299Z,634.38
2023-02-27T13:08:38.253Z,636.87
2023-02-27T13:11:29.189Z,633.55
2023-02-27T13:14:08.621Z,634.35
2023-02-27T13:16:40.610Z,633.70
2023-02-27T13:19:17.213Z,651.38
2023-02-27T13:21:54.762Z,668.08
2023-02-27T13:24:27.168Z,668.42
2023-02-27T13:26:57.187Z,680.17
2023-02-27T13:29:28.045Z,666.00
2023-02-27T13:32:44.112Z,664.88
2023-02-27T13:35:51.931Z,669.72
2023-02-27T13:38:44.386Z,666.70
2023-02-27T13:41:20.287Z,676.20
2023-02-27T13:43:52.718Z,664.25
2023-02-27T13:46:23.875Z,671.13
2023-02-27T13:49:29.523Z,670.72
2023-02-27T13:52:04.824Z,664.53
2023-02-27T13:54:34.068Z,663.47
2023-02-27T13:57:03.645Z,656.40
2023-02-27T13:59:33.330Z,667.15
2023-02-27T14:02:11.014Z,661.93
2023-02-27T14:04:46.927Z,660.95
2023-02-27T14:07:21.219Z,673.20
2023-02-27T14:10:11.664Z,663.15
2023-02-27T14:12:45.830Z,669.97
2023-02-27T14:15:24.853Z,663.67
2023-02-27T14:18:12.681Z,659.17
2023-02-27T14:20:42.440Z,660.72
2023-02-27T14:23:22.664Z,661.72
2023-02-27T14:26:12.287Z,665.03
2023-02-27T14:28:55.870Z,671.63
2023-02-27T14:31:28.495Z,663.38
2023-02-27T14:33:58.781Z,664.17
2023-02-27T14:36:28.149Z,660.95
2023-02-27T14:38:57.414Z,660.58
2023-02-27T14:41:44.643Z,662.92
2023-02-27T14:44:20.495Z,657.08
2023-02-27T14:46:47.305Z,670.70
2023-02-27T14:49:24.985Z,669.13
2023-02-27T14:51:52.990Z,669.70
2023-02-27T14:54:21.778Z,666.90
2023-02-27T14:56:57.520Z,668.03
2023-02-27T14:59:30.303Z,667.28
2023-02-27T15:02:01.752Z,666.97
2023-02-27T15:04:30.953Z,668.40
2023-02-27T15:06:59.443Z,656.60
2023-02-27T15:09:44.481Z,651.22
2023-02-27T15:12:17.524Z,652.73
2023-02-27T15:14:49.524Z,660.78
2023-02-27T15:17:18.746Z,663.17
2023-02-27T15:19:48.798Z,657.03
2023-02-27T15:22:38.600Z,656.17
2023-02-27T15:25:07.678Z,660.47
2023-02-27T15:27:37.273Z,656.97
2023-02-27T15:30:04.828Z,662.10
2023-02-27T15:32:35.251Z,661.70
2023-02-27T15:35:17.183Z,659.72
2023-02-27T15:37:50.677Z,658.08
2023-02-27T15:40:32.858Z,658.75
2023-02-27T15:43:00.988Z,657.97
2023-02-27T15:45:36.039Z,661.50
2023-02-27T15:48:03.944Z,667.03
2023-02-27T15:50:37.118Z,658.63
2023-02-27T15:53:09.241Z,658.65
2023-02-27T15:55:39.591Z,657.43
2023-02-27T15:58:30.533Z,653.08
2023-02-27T16:01:11.280Z,654.67
2023-02-27T16:03:45.836Z,646.75
2023-02-27T16:06:19.016Z,650.00
2023-02-27T16:08:50.939Z,641.45
2023-02-27T16:11:22.331Z,640.70
2023-02-27T16:13:49.796Z,642.60
2023-02-27T16:16:45.801Z,647.90
2023-02-27T16:19:26.775Z,644.53
2023-02-27T16:22:06.765Z,648.40
2023-02-27T16:24:33.979Z,648.25
2023-02-27T16:27:01.753Z,653.58
2023-02-27T16:29:39.783Z,647.78
2023-02-27T16:32:06.686Z,654.20
2023-02-27T16:34:45.456Z,654.03
2023-02-27T16:37:27.017Z,660.33
2023-02-27T16:39:54.355Z,657.58
2023-02-27T16:42:21.481Z,653.03
2023-02-27T16:44:48.409Z,647.50
2023-02-27T16:47:15.078Z,655.45
2023-02-27T16:49:44.128Z,652.15
2023-02-27T16:52:11.505Z,651.27
2023-02-27T16:54:38.323Z,652.00
2023-02-27T16:57:05.104Z,653.38
2023-02-27T16:59:40.933Z,649.08
2023-02-27T17:02:13.241Z,649.42
2023-02-27T17:04:43.799Z,645.87
2023-02-27T17:07:15.723Z,645.65
2023-02-27T17:09:46.132Z,648.77
2023-02-27T17:12:13.239Z,650.03
2023-02-27T17:14:39.876Z,651.50
2023-02-27T17:17:06.872Z,644.92
2023-02-27T17:19:33.974Z,647.13
2023-02-27T17:22:00.592Z,647.67
2023-02-27T17:24:27.291Z,644.45
2023-02-27T17:26:54.072Z,644.88
2023-02-27T17:29:21.500Z,649.97
2023-02-27T17:31:48.393Z,653.33
2023-02-27T17:34:16.740Z,647.85
2023-02-27T17:36:43.884Z,656.65
2023-02-27T17:39:14.702Z,652.83
2023-02-27T17:41:43.017Z,642.05
2023-02-27T17:44:11.397Z,641.78
2023-02-27T17:46:39.388Z,643.03
2023-02-27T17:49:06.596Z,644.72
2023-02-27T17:51:33.815Z,650.75
2023-02-27T17:54:02.592Z,632.85
2023-02-27T17:56:29.655Z,630.20
2023-02-27T17:58:56.828Z,624.58
2023-02-27T18:01:25.827Z,624.60
2023-02-27T18:03:54.670Z,628.20
2023-02-27T18:06:22.455Z,635.88
2023-02-27T18:08:49.356Z,629.55
2023-02-27T18:11:19.448Z,626.47
2023-02-27T18:13:46.784Z,628.28
2023-02-27T18:16:14.216Z,628.40
2023-02-27T18:18:42.794Z,633.00
2023-02-27T18:21:20.115Z,631.33
2023-02-27T18:23:47.900Z,625.72
2023-02-27T18:26:29.063Z,623.58
2023-02-27T18:29:10.206Z,631.58
2023-02-27T18:31:42.838Z,635.72
2023-02-27T18:34:09.633Z,637.53
2023-02-27T18:36:37.076Z,634.35
2023-02-27T18:39:04.892Z,631.15
2023-02-27T18:41:31.832Z,634.22
2023-02-27T18:43:58.693Z,633.70
2023-02-27T18:46:25.784Z,628.78
2023-02-27T18:48:52.492Z,625.17
2023-02-27T18:51:19.444Z,627.42
2023-02-27T18:53:48.321Z,628.63
2023-02-27T18:56:17.404Z,629.10
2023-02-27T18:58:44.098Z,628.22
2023-02-27T19:01:23.272Z,623.75
2023-02-27T19:03:50.613Z,620.00
2023-02-27T19:06:17.687Z,622.83
2023-02-27T19:08:44.916Z,627.38
2023-02-27T19:11:34.491Z,630.92
2023-02-27T19:14:07.973Z,631.72
2023-02-27T19:16:35.132Z,634.83
2023-02-27T19:19:03.158Z,636.10
2023-02-27T19:21:29.852Z,628.25
2023-02-27T19:23:56.710Z,623.22
2023-02-27T19:26:24.474Z,626.03
2023-02-27T19:28:53.658Z,623.28
2023-02-27T19:31:21.026Z,628.08
2023-02-27T19:33:47.916Z,630.15
2023-02-27T19:36:17.669Z,630.35
2023-02-27T19:38:44.332Z,631.17
2023-02-27T19:41:13.278Z,636.28
2023-02-27T19:43:41.244Z,636.05
2023-02-27T19:46:10.957Z,634.95
2023-02-27T19:48:38.234Z,628.20
2023-02-27T19:51:06.365Z,629.65
2023-02-27T19:53:35.796Z,634.43
2023-02-27T19:56:04.902Z,635.88
2023-02-27T19:58:33.438Z,637.33
2023-02-27T20:01:00.574Z,635.05
2023-02-27T20:03:27.751Z,640.10
2023-02-27T20:05:54.800Z,634.08
2023-02-27T20:08:21.591Z,634.47
2023-02-27T20:10:58.913Z,636.05
2023-02-27T20:13:26.612Z,634.15
2023-02-27T20:16:02.033Z,641.45
2023-02-27T20:18:29.969Z,636.65
2023-02-27T20:21:05.237Z,633.03
2023-02-27T20:23:33.699Z,634.95
2023-02-27T20:26:00.475Z,637.42
2023-02-27T20:28:31.856Z,632.65
2023-02-27T20:30:58.492Z,636.70
2023-02-27T20:33:25.081Z,639.15
2023-02-27T20:35:51.736Z,634.95
2023-02-27T20:38:19.859Z,631.53
2023-02-27T20:40:46.533Z,625.45
2023-02-27T20:43:13.163Z,625.03
2023-02-27T20:45:40.558Z,619.55
2023-02-27T20:48:07.557Z,619.95
2023-02-27T20:50:34.881Z,618.47
2023-02-27T20:53:01.611Z,616.75
2023-02-27T20:55:28.345Z,616.47
2023-02-27T20:57:55.022Z,621.83
2023-02-27T21:00:22.226Z,623.07
2023-02-27T21:02:48.901Z,619.40
2023-02-27T21:05:15.607Z,612.13
2023-02-27T21:07:42.273Z,611.55
2023-02-27T21:10:09.598Z,610.30
2023-02-27T21:12:36.340Z,619.63
2023-02-27T21:15:03.506Z,613.00
2023-02-27T21:17:30.186Z,621.30
2023-02-27T21:19:56.787Z,611.72
2023-02-27T21:22:23.591Z,608.13
2023-02-27T21:24:52.370Z,611.78
2023-02-27T21:27:21.259Z,613.67
2023-02-27T21:29:48.759Z,613.10
2023-02-27T21:32:15.528Z,611.70
2023-02-27T21:34:42.266Z,619.97
2023-02-27T21:37:10.583Z,608.97
2023-02-27T21:39:37.256Z,617.93
2023-02-27T21:42:04.441Z,609.78
2023-02-27T21:44:31.952Z,611.25
2023-02-27T21:46:58.885Z,617.08
2023-02-27T21:49:27.755Z,614.53
2023-02-27T21:51:54.521Z,616.80
2023-02-27T21:54:21.458Z,620.30
2023-02-27T21:56:49.759Z,617.25
2023-02-27T21:59:18.036Z,618.25
2023-02-27T22:01:48.395Z,620.47
2023-02-27T22:04:16.820Z,617.05
2023-02-27T22:06:43.799Z,617.25
2023-02-27T22:09:10.501Z,614.30
2023-02-27T22:11:37.646Z,609.73
2023-02-27T22:14:06.490Z,613.20
2023-02-27T22:16:33.745Z,618.25
2023-02-27T22:19:08.464Z,611.58
2023-02-27T22:21:37.041Z,613.83
2023-02-27T22:24:04.119Z,617.17
2023-02-27T22:26:32.030Z,617.90
2023-02-27T22:28:59.346Z,606.58
2023-02-27T22:31:29.763Z,611.25
2023-02-27T22:34:00.900Z,611.63
2023-02-27T22:36:29.690Z,612.17
2023-02-27T22:38:56.599Z,613.30
2023-02-27T22:41:29.555Z,611.70
2023-02-27T22:43:57.223Z,608.13
2023-02-27T22:46:29.661Z,607.97
2023-02-27T22:48:57.812Z,610.85
2023-02-27T22:51:25.415Z,609.23
2023-02-27T22:53:52.058Z,609.38
2023-02-27T22:56:18.779Z,607.95
2023-02-27T22:58:45.836Z,613.65
2023-02-27T23:01:16.152Z,611.75
2023-02-27T23:03:44.033Z,619.13
2023-02-27T23:06:13.804Z,607.93
2023-02-27T23:08:41.109Z,613.05
2023-02-27T23:11:08.628Z,609.85
2023-02-27T23:13:35.460Z,609.53
2023-02-27T23:16:11.077Z,611.28
2023-02-27T23:18:43.434Z,608.87
2023-02-27T23:21:10.286Z,615.08
2023-02-27T23:23:36.965Z,619.70
2023-02-27T23:26:05.621Z,617.65
2023-02-27T23:28:33.902Z,618.58
2023-02-27T23:31:01.008Z,622.65
2023-02-27T23:33:28.729Z,623.78
2023-02-27T23:35:55.887Z,624.78
2023-02-27T23:38:22.566Z,629.35
2023-02-27T23:40:49.600Z,625.83
2023-02-27T23:43:16.503Z,623.83
2023-02-27T23:45:43.318Z,621.78
2023-02-27T23:48:10.045Z,623.00
2023-02-27T23:50:46.683Z,628.20
2023-02-27T23:53:13.671Z,628.72
2023-02-27T23:55:41.109Z,621.35
2023-02-27T23:58:10.087Z,620.53
